Oregon State Flying Club

The Oregon State Flying Club is a non-profit organization committed to providing safe and inexpensive flying to the Oregon State University and Linn-Benton Community College communities. The Club currently owns three aircraft based at the Corvallis Airport for training, travel, and recreational purposes. Founded in 1952 and incorporated in 1956 the OSFC is one of the oldest continuously active flying clubs in the United States.

News & Announcements

Monthly Board Meeting

Next Meeting: Wednesday, February 11, 6pm, 110 Memorial Union

Current METAR KCVO

Raw METAR:  KCVO 281355Z AUTO 00000KT 1/4SM OVC002 09/08 A3031 RMK AO1

This is a report for Corvallis Municipal Automatic Weather Observing / Reporting System, United States. The report was made 13 minutes ago, at 13:55 UTC. The wind was calm. The temperature was 48 °F (9 °C), with a dew-point at 46 °F (8 °C). The atmospheric pressure was 30.31 inHg (1026 hPa). The relative humidity was 93.4%. The sky was overcast from a height of 200 feet (61 meter) The overall visibility was 1320 feet (402 meter).